DGMMC EDDE-EDDP
Flight info
| Callsign | DGMMC |
|---|---|
| Flight time | 0h 41m |
| Altitude | 4000 |
| Route | SCENIC VFR |
| Aircraft | DA42/L-V/N |
Departure
| Time | 2026-05-09 13:28 |
|---|---|
| Airport | Erfurt-Weimar Airport (EDDE) |
Arrival
| Time | 2026-05-09 14:09 |
|---|---|
| Airport | Leipzig/Halle Airport (EDDP) |
| Time | Latitude | Longitude | Altitude | Speed | Heading |
|---|---|---|---|---|---|
| 2026-05-09 13:11 | 50.97569 | 10.96501 | 1019 ft | 0 kts | 271° |
| 2026-05-09 13:23 | 50.97570 | 10.96491 | 1020 ft | 4 kts | 271° |
| 2026-05-09 13:23 | 50.97587 | 10.96425 | 1020 ft | 7 kts | 353° |
| 2026-05-09 13:24 | 50.97630 | 10.96422 | 1020 ft | 7 kts | 5° |
| 2026-05-09 13:24 | 50.97693 | 10.96437 | 1020 ft | 8 kts | 13° |
| 2026-05-09 13:24 | 50.97713 | 10.96508 | 1020 ft | 10 kts | 90° |
| 2026-05-09 13:24 | 50.97702 | 10.96648 | 1019 ft | 17 kts | 92° |
| 2026-05-09 13:25 | 50.97684 | 10.96889 | 1019 ft | 24 kts | 97° |
| 2026-05-09 13:25 | 50.97685 | 10.97121 | 1018 ft | 19 kts | 78° |
| 2026-05-09 13:25 | 50.97715 | 10.97432 | 1017 ft | 0 kts | 63° |
| 2026-05-09 13:26 | 50.97720 | 10.97444 | 1017 ft | 8 kts | 55° |
| 2026-05-09 13:27 | 50.97781 | 10.97556 | 1016 ft | 13 kts | 36° |
| 2026-05-09 13:27 | 50.97844 | 10.97519 | 1015 ft | 0 kts | 277° |
| 2026-05-09 13:28 | 50.97867 | 10.97302 | 1017 ft | 52 kts | 275° |
| 2026-05-09 13:28 | 50.97920 | 10.96481 | 1109 ft | 86 kts | 281° |
| 2026-05-09 13:28 | 50.98014 | 10.95495 | 1390 ft | 94 kts | 295° |
| 2026-05-09 13:28 | 50.98520 | 10.94851 | 1665 ft | 101 kts | 350° |
| 2026-05-09 13:29 | 50.99211 | 10.95009 | 1981 ft | 101 kts | 23° |
| 2026-05-09 13:29 | 50.99917 | 10.95510 | 1995 ft | 120 kts | 29° |
| 2026-05-09 13:29 | 51.00663 | 10.96241 | 2000 ft | 132 kts | 33° |
| 2026-05-09 13:29 | 51.01466 | 10.97047 | 2000 ft | 142 kts | 33° |
| 2026-05-09 13:30 | 51.02383 | 10.97653 | 1992 ft | 151 kts | 3° |
| 2026-05-09 13:30 | 51.03361 | 10.97104 | 1988 ft | 150 kts | 326° |
| 2026-05-09 13:30 | 51.04128 | 10.96010 | 2000 ft | 148 kts | 317° |
| 2026-05-09 13:30 | 51.04869 | 10.94883 | 1993 ft | 146 kts | 320° |
| 2026-05-09 13:31 | 51.05679 | 10.93934 | 1997 ft | 144 kts | 326° |
| 2026-05-09 13:31 | 51.06502 | 10.93018 | 1988 ft | 144 kts | 326° |
| 2026-05-09 13:31 | 51.07322 | 10.92098 | 1997 ft | 145 kts | 326° |
| 2026-05-09 13:31 | 51.08152 | 10.91168 | 1987 ft | 145 kts | 326° |
| 2026-05-09 13:32 | 51.08971 | 10.90246 | 1990 ft | 144 kts | 326° |
| 2026-05-09 13:32 | 51.10579 | 10.88422 | 2159 ft | 134 kts | 326° |
| 2026-05-09 13:32 | 51.11268 | 10.87633 | 2631 ft | 109 kts | 326° |
| 2026-05-09 13:33 | 51.11831 | 10.86976 | 3024 ft | 97 kts | 325° |
| 2026-05-09 13:33 | 51.12386 | 10.86343 | 3289 ft | 99 kts | 326° |
| 2026-05-09 13:33 | 51.12949 | 10.85718 | 3534 ft | 99 kts | 326° |
| 2026-05-09 13:33 | 51.13508 | 10.85103 | 3779 ft | 99 kts | 326° |
| 2026-05-09 13:34 | 51.14081 | 10.84478 | 3980 ft | 103 kts | 326° |
| 2026-05-09 13:34 | 51.14728 | 10.83780 | 3943 ft | 126 kts | 326° |
| 2026-05-09 13:34 | 51.15523 | 10.82925 | 3801 ft | 146 kts | 326° |
| 2026-05-09 13:34 | 51.16400 | 10.81985 | 3644 ft | 157 kts | 326° |
| 2026-05-09 13:35 | 51.17326 | 10.80988 | 3501 ft | 163 kts | 326° |
| 2026-05-09 13:35 | 51.18256 | 10.79983 | 3488 ft | 159 kts | 326° |
| 2026-05-09 13:35 | 51.19162 | 10.79002 | 3488 ft | 156 kts | 326° |
| 2026-05-09 13:35 | 51.20059 | 10.78034 | 3488 ft | 155 kts | 326° |
| 2026-05-09 13:36 | 51.20648 | 10.77398 | 3486 ft | 154 kts | 326° |
| 2026-05-09 13:36 | 51.21532 | 10.76442 | 3488 ft | 153 kts | 326° |
| 2026-05-09 13:36 | 51.22411 | 10.75492 | 3486 ft | 153 kts | 326° |
| 2026-05-09 13:36 | 51.23293 | 10.74536 | 3487 ft | 154 kts | 326° |
| 2026-05-09 13:37 | 51.24468 | 10.73261 | 3485 ft | 154 kts | 326° |
| 2026-05-09 13:37 | 51.25068 | 10.72608 | 3486 ft | 154 kts | 326° |
| 2026-05-09 13:37 | 51.25959 | 10.71640 | 3485 ft | 155 kts | 326° |
| 2026-05-09 13:37 | 51.26837 | 10.70685 | 3484 ft | 154 kts | 326° |
| 2026-05-09 13:38 | 51.27733 | 10.69707 | 3484 ft | 154 kts | 326° |
| 2026-05-09 13:38 | 51.28622 | 10.68734 | 3487 ft | 156 kts | 326° |
| 2026-05-09 13:38 | 51.29507 | 10.67767 | 3488 ft | 156 kts | 326° |
| 2026-05-09 13:38 | 51.30404 | 10.66785 | 3483 ft | 156 kts | 326° |
| 2026-05-09 13:39 | 51.31339 | 10.65924 | 3486 ft | 156 kts | 347° |
| 2026-05-09 13:39 | 51.32376 | 10.66221 | 3425 ft | 158 kts | 35° |
| 2026-05-09 13:39 | 51.32962 | 10.67684 | 3283 ft | 161 kts | 79° |
| 2026-05-09 13:39 | 51.33188 | 10.69436 | 3127 ft | 162 kts | 75° |
| 2026-05-09 13:40 | 51.33538 | 10.71128 | 2988 ft | 157 kts | 71° |
| 2026-05-09 13:40 | 51.33911 | 10.72709 | 2984 ft | 147 kts | 70° |
| 2026-05-09 13:40 | 51.34270 | 10.74208 | 2986 ft | 142 kts | 70° |
| 2026-05-09 13:40 | 51.34621 | 10.75681 | 2987 ft | 142 kts | 70° |
| 2026-05-09 13:41 | 51.34972 | 10.77156 | 2988 ft | 143 kts | 70° |
| 2026-05-09 13:41 | 51.35325 | 10.78634 | 2984 ft | 142 kts | 70° |
| 2026-05-09 13:41 | 51.35674 | 10.80099 | 2982 ft | 140 kts | 70° |
| 2026-05-09 13:41 | 51.36017 | 10.81541 | 2983 ft | 138 kts | 70° |
| 2026-05-09 13:42 | 51.36357 | 10.82969 | 2963 ft | 137 kts | 70° |
| 2026-05-09 13:42 | 51.36699 | 10.84416 | 2965 ft | 142 kts | 70° |
| 2026-05-09 13:42 | 51.37056 | 10.85911 | 2959 ft | 145 kts | 70° |
| 2026-05-09 13:42 | 51.37411 | 10.87406 | 2951 ft | 141 kts | 70° |
| 2026-05-09 13:43 | 51.37751 | 10.88847 | 2957 ft | 141 kts | 70° |
| 2026-05-09 13:43 | 51.38098 | 10.90305 | 2953 ft | 139 kts | 70° |
| 2026-05-09 13:43 | 51.38438 | 10.91741 | 2949 ft | 136 kts | 70° |
| 2026-05-09 13:43 | 51.38772 | 10.93149 | 2947 ft | 134 kts | 70° |
| 2026-05-09 13:44 | 51.39099 | 10.94534 | 2953 ft | 133 kts | 70° |
| 2026-05-09 13:44 | 51.39430 | 10.95935 | 2953 ft | 136 kts | 70° |
| 2026-05-09 13:44 | 51.39764 | 10.97348 | 2962 ft | 136 kts | 70° |
| 2026-05-09 13:44 | 51.40104 | 10.98791 | 2963 ft | 140 kts | 70° |
| 2026-05-09 13:45 | 51.40451 | 11.00263 | 2957 ft | 142 kts | 70° |
| 2026-05-09 13:45 | 51.40798 | 11.01733 | 2959 ft | 140 kts | 70° |
| 2026-05-09 13:45 | 51.41141 | 11.03187 | 2951 ft | 138 kts | 70° |
| 2026-05-09 13:45 | 51.41473 | 11.04597 | 2951 ft | 136 kts | 70° |
| 2026-05-09 13:46 | 51.41804 | 11.06003 | 2948 ft | 134 kts | 70° |
| 2026-05-09 13:46 | 51.42136 | 11.07415 | 2951 ft | 138 kts | 71° |
| 2026-05-09 13:46 | 51.42481 | 11.08886 | 2958 ft | 144 kts | 70° |
| 2026-05-09 13:46 | 51.42840 | 11.10414 | 2961 ft | 149 kts | 70° |
| 2026-05-09 13:47 | 51.43208 | 11.11985 | 2964 ft | 152 kts | 70° |
| 2026-05-09 13:47 | 51.43579 | 11.13564 | 2969 ft | 155 kts | 70° |
| 2026-05-09 13:47 | 51.43964 | 11.15210 | 2969 ft | 157 kts | 70° |
| 2026-05-09 13:47 | 51.44343 | 11.16827 | 2963 ft | 156 kts | 70° |
| 2026-05-09 13:48 | 51.44724 | 11.18458 | 2964 ft | 156 kts | 71° |
| 2026-05-09 13:48 | 51.45105 | 11.20087 | 2960 ft | 155 kts | 71° |
| 2026-05-09 13:48 | 51.45483 | 11.21703 | 2963 ft | 155 kts | 70° |
| 2026-05-09 13:48 | 51.45901 | 11.23291 | 2963 ft | 156 kts | 57° |
| 2026-05-09 13:49 | 51.46632 | 11.24596 | 2969 ft | 158 kts | 47° |
| 2026-05-09 13:49 | 51.47405 | 11.25866 | 2969 ft | 160 kts | 47° |
| 2026-05-09 13:49 | 51.48182 | 11.27139 | 2964 ft | 159 kts | 47° |
| 2026-05-09 13:49 | 51.48954 | 11.28393 | 2963 ft | 157 kts | 47° |
| 2026-05-09 13:50 | 51.49712 | 11.29625 | 2963 ft | 154 kts | 47° |
| 2026-05-09 13:50 | 51.50470 | 11.30851 | 2969 ft | 155 kts | 47° |
| 2026-05-09 13:50 | 51.51230 | 11.32090 | 2971 ft | 156 kts | 47° |
| 2026-05-09 13:50 | 51.51996 | 11.33335 | 2970 ft | 158 kts | 47° |
| 2026-05-09 13:51 | 51.52764 | 11.34585 | 2969 ft | 157 kts | 47° |
| 2026-05-09 13:51 | 51.53535 | 11.35842 | 2970 ft | 158 kts | 47° |
| 2026-05-09 13:51 | 51.54313 | 11.37107 | 2970 ft | 159 kts | 47° |
| 2026-05-09 13:51 | 51.55070 | 11.38346 | 2970 ft | 157 kts | 47° |
| 2026-05-09 13:52 | 51.55834 | 11.39588 | 2967 ft | 155 kts | 47° |
| 2026-05-09 13:52 | 51.56589 | 11.40803 | 2973 ft | 153 kts | 47° |
| 2026-05-09 13:52 | 51.57342 | 11.42017 | 2977 ft | 153 kts | 47° |
| 2026-05-09 13:52 | 51.58106 | 11.43251 | 2979 ft | 157 kts | 47° |
| 2026-05-09 13:53 | 51.58877 | 11.44504 | 2982 ft | 158 kts | 47° |
| 2026-05-09 13:53 | 51.59649 | 11.45762 | 2980 ft | 158 kts | 47° |
| 2026-05-09 13:53 | 51.60416 | 11.47009 | 2980 ft | 156 kts | 47° |
| 2026-05-09 13:53 | 51.61176 | 11.48237 | 2984 ft | 155 kts | 47° |
| 2026-05-09 13:54 | 51.61939 | 11.49474 | 2982 ft | 156 kts | 47° |
| 2026-05-09 13:54 | 51.62700 | 11.50708 | 2982 ft | 157 kts | 47° |
| 2026-05-09 13:54 | 51.63466 | 11.51954 | 2979 ft | 156 kts | 47° |
| 2026-05-09 13:54 | 51.64230 | 11.53204 | 2988 ft | 157 kts | 47° |
| 2026-05-09 13:55 | 51.64944 | 11.54526 | 2982 ft | 156 kts | 65° |
| 2026-05-09 13:55 | 51.65028 | 11.56228 | 2823 ft | 155 kts | 104° |
| 2026-05-09 13:55 | 51.64763 | 11.57897 | 2649 ft | 153 kts | 102° |
| 2026-05-09 13:55 | 51.64568 | 11.59574 | 2489 ft | 149 kts | 99° |
| 2026-05-09 13:56 | 51.64427 | 11.61175 | 2488 ft | 141 kts | 98° |
| 2026-05-09 13:56 | 51.64302 | 11.62724 | 2488 ft | 138 kts | 97° |
| 2026-05-09 13:56 | 51.64180 | 11.64251 | 2489 ft | 137 kts | 97° |
| 2026-05-09 13:56 | 51.64062 | 11.65747 | 2492 ft | 136 kts | 97° |
| 2026-05-09 13:57 | 51.63941 | 11.67265 | 2492 ft | 137 kts | 97° |
| 2026-05-09 13:57 | 51.63820 | 11.68788 | 2495 ft | 137 kts | 97° |
| 2026-05-09 13:57 | 51.63699 | 11.70310 | 2491 ft | 138 kts | 97° |
| 2026-05-09 13:57 | 51.63577 | 11.71841 | 2486 ft | 137 kts | 97° |
| 2026-05-09 13:58 | 51.63457 | 11.73352 | 2485 ft | 135 kts | 97° |
| 2026-05-09 13:58 | 51.63338 | 11.74842 | 2488 ft | 133 kts | 97° |
| 2026-05-09 13:58 | 51.63218 | 11.76315 | 2479 ft | 131 kts | 97° |
| 2026-05-09 13:58 | 51.63102 | 11.77761 | 2488 ft | 130 kts | 97° |
| 2026-05-09 13:59 | 51.62985 | 11.79221 | 2486 ft | 132 kts | 97° |
| 2026-05-09 13:59 | 51.62866 | 11.80697 | 2486 ft | 133 kts | 97° |
| 2026-05-09 13:59 | 51.62747 | 11.82175 | 2483 ft | 133 kts | 97° |
| 2026-05-09 13:59 | 51.62590 | 11.83654 | 2480 ft | 135 kts | 112° |
| 2026-05-09 14:00 | 51.62024 | 11.84844 | 2486 ft | 134 kts | 127° |
| 2026-05-09 14:00 | 51.61841 | 11.85231 | 2486 ft | 134 kts | 126° |
| 2026-05-09 14:00 | 51.60909 | 11.87252 | 2484 ft | 135 kts | 126° |
| 2026-05-09 14:00 | 51.60348 | 11.88465 | 2482 ft | 135 kts | 125° |
| 2026-05-09 14:01 | 51.59787 | 11.89679 | 2415 ft | 137 kts | 125° |
| 2026-05-09 14:01 | 51.59206 | 11.90930 | 2263 ft | 142 kts | 125° |
| 2026-05-09 14:01 | 51.58627 | 11.92241 | 2104 ft | 145 kts | 123° |
| 2026-05-09 14:01 | 51.58041 | 11.93582 | 1982 ft | 146 kts | 123° |
| 2026-05-09 14:02 | 51.57478 | 11.94867 | 1982 ft | 140 kts | 123° |
| 2026-05-09 14:02 | 51.56934 | 11.96135 | 1972 ft | 135 kts | 122° |
| 2026-05-09 14:02 | 51.56405 | 11.97394 | 1978 ft | 135 kts | 122° |
| 2026-05-09 14:02 | 51.55876 | 11.98649 | 1974 ft | 135 kts | 122° |
| 2026-05-09 14:03 | 51.55354 | 11.99884 | 1991 ft | 131 kts | 122° |
| 2026-05-09 14:03 | 51.54845 | 12.01083 | 1990 ft | 129 kts | 122° |
| 2026-05-09 14:03 | 51.54354 | 12.02241 | 1989 ft | 125 kts | 122° |
| 2026-05-09 14:03 | 51.53868 | 12.03389 | 1989 ft | 123 kts | 122° |
| 2026-05-09 14:04 | 51.53390 | 12.04525 | 1987 ft | 122 kts | 122° |
| 2026-05-09 14:04 | 51.52912 | 12.05653 | 1989 ft | 122 kts | 122° |
| 2026-05-09 14:04 | 51.52432 | 12.06785 | 1990 ft | 123 kts | 122° |
| 2026-05-09 14:04 | 51.51947 | 12.07930 | 1989 ft | 124 kts | 122° |
| 2026-05-09 14:05 | 51.51458 | 12.09079 | 1988 ft | 125 kts | 122° |
| 2026-05-09 14:05 | 51.50958 | 12.10248 | 1985 ft | 128 kts | 122° |
| 2026-05-09 14:05 | 51.50464 | 12.11406 | 1985 ft | 124 kts | 122° |
| 2026-05-09 14:05 | 51.49980 | 12.12535 | 1984 ft | 122 kts | 122° |
| 2026-05-09 14:06 | 51.49507 | 12.13649 | 1965 ft | 122 kts | 122° |
| 2026-05-09 14:06 | 51.49012 | 12.14827 | 1788 ft | 132 kts | 122° |
| 2026-05-09 14:06 | 51.48491 | 12.16073 | 1604 ft | 136 kts | 122° |
| 2026-05-09 14:06 | 51.47976 | 12.17288 | 1490 ft | 128 kts | 122° |
| 2026-05-09 14:07 | 51.47474 | 12.18458 | 1493 ft | 127 kts | 123° |
| 2026-05-09 14:07 | 51.46758 | 12.19273 | 1282 ft | 130 kts | 162° |
| 2026-05-09 14:07 | 51.45876 | 12.19383 | 1004 ft | 121 kts | 176° |
| 2026-05-09 14:07 | 51.45086 | 12.19373 | 982 ft | 106 kts | 177° |
| 2026-05-09 14:08 | 51.44340 | 12.19393 | 909 ft | 108 kts | 174° |
| 2026-05-09 14:08 | 51.43623 | 12.19623 | 817 ft | 102 kts | 150° |
| 2026-05-09 14:08 | 51.43179 | 12.20433 | 657 ft | 99 kts | 106° |
| 2026-05-09 14:08 | 51.43128 | 12.21487 | 526 ft | 92 kts | 87° |
| 2026-05-09 14:09 | 51.43165 | 12.22457 | 450 ft | 78 kts | 84° |
| 2026-05-09 14:09 | 51.43206 | 12.23276 | 435 ft | 70 kts | 85° |
| 2026-05-09 14:09 | 51.43237 | 12.23934 | 441 ft | 53 kts | 89° |
| 2026-05-09 14:09 | 51.43247 | 12.24392 | 437 ft | 32 kts | 96° |
| 2026-05-09 14:10 | 51.43171 | 12.24747 | 447 ft | 0 kts | 114° |
| 2026-05-09 14:10 | 51.43168 | 12.24756 | 447 ft | 6 kts | 115° |
| 2026-05-09 14:10 | 51.43124 | 12.24901 | 447 ft | 23 kts | 114° |
| 2026-05-09 14:11 | 51.43062 | 12.25099 | 448 ft | 18 kts | 112° |
| 2026-05-09 14:11 | 51.43003 | 12.25264 | 446 ft | 18 kts | 147° |
| 2026-05-09 14:11 | 51.42821 | 12.25219 | 449 ft | 41 kts | 193° |
| 2026-05-09 14:11 | 51.42581 | 12.25129 | 461 ft | 30 kts | 191° |
| 2026-05-09 14:12 | 51.42369 | 12.25046 | 473 ft | 38 kts | 193° |
| 2026-05-09 14:12 | 51.42149 | 12.24963 | 484 ft | 29 kts | 193° |
| 2026-05-09 14:12 | 51.41928 | 12.24878 | 483 ft | 33 kts | 194° |
| 2026-05-09 14:12 | 51.41719 | 12.24796 | 470 ft | 24 kts | 204° |
| 2026-05-09 14:13 | 51.41659 | 12.24633 | 469 ft | 28 kts | 264° |
| 2026-05-09 14:14 | 51.41821 | 12.22421 | 449 ft | 3 kts | 281° |